sensor_id;sensor_type;location;lat;lon;timestamp;temperature;humidity
66401;HTU21D;53211;45.040;38.788;2022-10-01T00:01:39;14.89;77.14
66401;HTU21D;53211;45.040;38.788;2022-10-01T00:04:05;14.87;77.11
66401;HTU21D;53211;45.040;38.788;2022-10-01T00:06:31;14.85;77.13
66401;HTU21D;53211;45.040;38.788;2022-10-01T00:08:57;14.82;77.51
66401;HTU21D;53211;45.040;38.788;2022-10-01T00:11:24;14.80;77.67
66401;HTU21D;53211;45.040;38.788;2022-10-01T00:13:52;14.79;77.31
66401;HTU21D;53211;45.040;38.788;2022-10-01T00:16:21;14.77;77.22
66401;HTU21D;53211;45.040;38.788;2022-10-01T00:18:48;14.75;77.26
66401;HTU21D;53211;45.040;38.788;2022-10-01T00:21:17;14.73;77.24
66401;HTU21D;53211;45.040;38.788;2022-10-01T00:23:43;14.71;77.22
66401;HTU21D;53211;45.040;38.788;2022-10-01T00:26:13;14.69;77.31
66401;HTU21D;53211;45.040;38.788;2022-10-01T00:28:40;14.67;77.39
66401;HTU21D;53211;45.040;38.788;2022-10-01T00:31:08;14.64;77.24
66401;HTU21D;53211;45.040;38.788;2022-10-01T00:33:34;14.63;77.13
66401;HTU21D;53211;45.040;38.788;2022-10-01T00:36:02;14.60;77.13
66401;HTU21D;53211;45.040;38.788;2022-10-01T00:38:29;14.59;77.13
66401;HTU21D;53211;45.040;38.788;2022-10-01T00:40:55;14.56;77.21
66401;HTU21D;53211;45.040;38.788;2022-10-01T00:43:29;14.55;77.27
66401;HTU21D;53211;45.040;38.788;2022-10-01T00:48:48;14.51;77.18
66401;HTU21D;53211;45.040;38.788;2022-10-01T00:51:17;14.51;77.27
66401;HTU21D;53211;45.040;38.788;2022-10-01T00:53:43;14.49;77.14
66401;HTU21D;53211;45.040;38.788;2022-10-01T00:56:10;14.49;77.12
66401;HTU21D;53211;45.040;38.788;2022-10-01T00:58:36;14.47;77.23
66401;HTU21D;53211;45.040;38.788;2022-10-01T01:01:04;14.45;77.26
66401;HTU21D;53211;45.040;38.788;2022-10-01T01:03:30;14.42;77.25
66401;HTU21D;53211;45.040;38.788;2022-10-01T01:05:56;14.41;77.31
66401;HTU21D;53211;45.040;38.788;2022-10-01T01:08:22;14.39;77.33
66401;HTU21D;53211;45.040;38.788;2022-10-01T01:10:56;14.36;77.90
66401;HTU21D;53211;45.040;38.788;2022-10-01T01:13:36;14.35;79.02
66401;HTU21D;53211;45.040;38.788;2022-10-01T01:16:10;14.32;78.12
66401;HTU21D;53211;45.040;38.788;2022-10-01T01:18:57;14.32;77.94
66401;HTU21D;53211;45.040;38.788;2022-10-01T01:21:30;14.30;77.47
66401;HTU21D;53211;45.040;38.788;2022-10-01T01:29:28;14.24;77.72
66401;HTU21D;53211;45.040;38.788;2022-10-01T01:32:01;14.20;77.54
66401;HTU21D;53211;45.040;38.788;2022-10-01T01:34:32;14.19;77.46
66401;HTU21D;53211;45.040;38.788;2022-10-01T01:37:05;14.17;77.42
66401;HTU21D;53211;45.040;38.788;2022-10-01T01:39:40;14.14;77.41
66401;HTU21D;53211;45.040;38.788;2022-10-01T01:42:12;14.13;77.41
66401;HTU21D;53211;45.040;38.788;2022-10-01T01:44:43;14.10;77.84
66401;HTU21D;53211;45.040;38.788;2022-10-01T01:47:12;14.09;77.93
66401;HTU21D;53211;45.040;38.788;2022-10-01T01:49:39;14.08;78.18
66401;HTU21D;53211;45.040;38.788;2022-10-01T01:52:12;14.07;77.57
66401;HTU21D;53211;45.040;38.788;2022-10-01T01:54:44;14.05;77.46
66401;HTU21D;53211;45.040;38.788;2022-10-01T01:57:18;14.04;77.69
66401;HTU21D;53211;45.040;38.788;2022-10-01T01:59:44;14.01;78.07
66401;HTU21D;53211;45.040;38.788;2022-10-01T02:02:20;14.00;77.90
66401;HTU21D;53211;45.040;38.788;2022-10-01T02:05:16;14.00;77.74
66401;HTU21D;53211;45.040;38.788;2022-10-01T02:15:50;13.91;77.68
66401;HTU21D;53211;45.040;38.788;2022-10-01T02:21:20;13.90;77.53
66401;HTU21D;53211;45.040;38.788;2022-10-01T02:24:19;13.89;77.52
66401;HTU21D;53211;45.040;38.788;2022-10-01T02:26:50;13.85;77.55
66401;HTU21D;53211;45.040;38.788;2022-10-01T02:29:20;13.85;77.51
66401;HTU21D;53211;45.040;38.788;2022-10-01T02:31:48;13.84;77.53
66401;HTU21D;53211;45.040;38.788;2022-10-01T02:34:19;13.82;77.60
66401;HTU21D;53211;45.040;38.788;2022-10-01T02:36:47;13.80;77.66
66401;HTU21D;53211;45.040;38.788;2022-10-01T02:39:15;13.79;77.64
66401;HTU21D;53211;45.040;38.788;2022-10-01T02:41:43;13.77;77.76
66401;HTU21D;53211;45.040;38.788;2022-10-01T02:44:16;13.75;77.73
66401;HTU21D;53211;45.040;38.788;2022-10-01T02:46:50;13.75;77.56
66401;HTU21D;53211;45.040;38.788;2022-10-01T02:49:17;13.71;77.63
66401;HTU21D;53211;45.040;38.788;2022-10-01T02:51:52;13.70;77.60
66401;HTU21D;53211;45.040;38.788;2022-10-01T02:57:08;13.64;77.80
66401;HTU21D;53211;45.040;38.788;2022-10-01T03:00:00;13.64;77.76
66401;HTU21D;53211;45.040;38.788;2022-10-01T03:02:28;13.61;77.72
66401;HTU21D;53211;45.040;38.788;2022-10-01T03:04:56;13.59;77.73
66401;HTU21D;53211;45.040;38.788;2022-10-01T03:07:24;13.56;78.01
66401;HTU21D;53211;45.040;38.788;2022-10-01T03:09:50;13.54;78.43
66401;HTU21D;53211;45.040;38.788;2022-10-01T03:12:17;13.53;77.79
66401;HTU21D;53211;45.040;38.788;2022-10-01T03:14:43;13.54;77.69
66401;HTU21D;53211;45.040;38.788;2022-10-01T03:17:11;13.52;77.76
66401;HTU21D;53211;45.040;38.788;2022-10-01T03:19:38;13.52;77.70
66401;HTU21D;53211;45.040;38.788;2022-10-01T03:22:05;13.50;77.71
66401;HTU21D;53211;45.040;38.788;2022-10-01T03:24:31;13.48;77.68
66401;HTU21D;53211;45.040;38.788;2022-10-01T03:26:57;13.49;77.81
66401;HTU21D;53211;45.040;38.788;2022-10-01T03:29:24;13.48;77.87
66401;HTU21D;53211;45.040;38.788;2022-10-01T03:31:51;13.47;78.02
66401;HTU21D;53211;45.040;38.788;2022-10-01T03:34:18;13.47;77.77
66401;HTU21D;53211;45.040;38.788;2022-10-01T03:36:44;13.48;77.76
66401;HTU21D;53211;45.040;38.788;2022-10-01T03:39:12;13.48;77.81
66401;HTU21D;53211;45.040;38.788;2022-10-01T03:41:38;13.49;77.89
66401;HTU21D;53211;45.040;38.788;2022-10-01T03:44:04;13.50;77.89
66401;HTU21D;53211;45.040;38.788;2022-10-01T03:46:30;13.52;77.84
66401;HTU21D;53211;45.040;38.788;2022-10-01T03:48:57;13.54;77.91
66401;HTU21D;53211;45.040;38.788;2022-10-01T03:51:24;13.56;77.92
66401;HTU21D;53211;45.040;38.788;2022-10-01T03:53:50;13.59;77.90
66401;HTU21D;53211;45.040;38.788;2022-10-01T03:56:16;13.63;77.85
66401;HTU21D;53211;45.040;38.788;2022-10-01T03:58:43;13.65;77.87
66401;HTU21D;53211;45.040;38.788;2022-10-01T04:01:09;13.69;77.98
66401;HTU21D;53211;45.040;38.788;2022-10-01T04:03:35;13.71;78.03
66401;HTU21D;53211;45.040;38.788;2022-10-01T04:06:01;13.76;78.01
66401;HTU21D;53211;45.040;38.788;2022-10-01T04:08:27;13.81;78.05
66401;HTU21D;53211;45.040;38.788;2022-10-01T04:10:53;13.85;78.13
66401;HTU21D;53211;45.040;38.788;2022-10-01T04:13:19;13.92;78.20
66401;HTU21D;53211;45.040;38.788;2022-10-01T04:15:45;13.97;78.22
66401;HTU21D;53211;45.040;38.788;2022-10-01T04:18:12;14.06;78.29
66401;HTU21D;53211;45.040;38.788;2022-10-01T04:20:40;14.14;78.33
66401;HTU21D;53211;45.040;38.788;2022-10-01T04:23:06;14.22;78.34
66401;HTU21D;53211;45.040;38.788;2022-10-01T04:25:32;14.32;78.41
66401;HTU21D;53211;45.040;38.788;2022-10-01T04:28:04;14.41;78.47
66401;HTU21D;53211;45.040;38.788;2022-10-01T04:30:35;14.51;78.54
66401;HTU21D;53211;45.040;38.788;2022-10-01T04:33:02;14.59;78.59
66401;HTU21D;53211;45.040;38.788;2022-10-01T04:35:28;14.70;78.69
66401;HTU21D;53211;45.040;38.788;2022-10-01T04:38:06;14.82;78.82
66401;HTU21D;53211;45.040;38.788;2022-10-01T04:40:34;14.92;78.87
66401;HTU21D;53211;45.040;38.788;2022-10-01T04:43:04;15.04;78.82
66401;HTU21D;53211;45.040;38.788;2022-10-01T04:45:33;15.17;78.79
66401;HTU21D;53211;45.040;38.788;2022-10-01T04:47:59;15.27;79.22
66401;HTU21D;53211;45.040;38.788;2022-10-01T04:50:25;15.40;78.84
66401;HTU21D;53211;45.040;38.788;2022-10-01T04:52:52;15.52;78.66
66401;HTU21D;53211;45.040;38.788;2022-10-01T04:55:20;15.65;78.68
66401;HTU21D;53211;45.040;38.788;2022-10-01T04:57:46;15.77;78.56
66401;HTU21D;53211;45.040;38.788;2022-10-01T05:00:15;15.92;78.57
66401;HTU21D;53211;45.040;38.788;2022-10-01T05:02:46;16.05;79.05
66401;HTU21D;53211;45.040;38.788;2022-10-01T05:05:12;16.19;78.75
66401;HTU21D;53211;45.040;38.788;2022-10-01T05:07:39;16.29;78.84
66401;HTU21D;53211;45.040;38.788;2022-10-01T05:10:07;16.42;78.68
66401;HTU21D;53211;45.040;38.788;2022-10-01T05:12:33;16.54;78.59
66401;HTU21D;53211;45.040;38.788;2022-10-01T05:14:59;16.65;78.59
66401;HTU21D;53211;45.040;38.788;2022-10-01T05:17:25;16.77;78.63
66401;HTU21D;53211;45.040;38.788;2022-10-01T05:19:51;16.89;78.75
66401;HTU21D;53211;45.040;38.788;2022-10-01T05:22:17;17.04;78.88
66401;HTU21D;53211;45.040;38.788;2022-10-01T05:24:43;17.16;81.01
66401;HTU21D;53211;45.040;38.788;2022-10-01T05:27:09;17.30;83.08
66401;HTU21D;53211;45.040;38.788;2022-10-01T05:29:41;17.44;84.53
66401;HTU21D;53211;45.040;38.788;2022-10-01T05:32:08;17.61;80.74
66401;HTU21D;53211;45.040;38.788;2022-10-01T05:34:35;17.76;80.21
66401;HTU21D;53211;45.040;38.788;2022-10-01T05:37:19;17.92;86.52
66401;HTU21D;53211;45.040;38.788;2022-10-01T05:39:45;18.07;80.72
66401;HTU21D;53211;45.040;38.788;2022-10-01T05:42:11;18.21;79.85
66401;HTU21D;53211;45.040;38.788;2022-10-01T05:44:37;18.35;84.48
66401;HTU21D;53211;45.040;38.788;2022-10-01T05:47:04;18.51;83.59
66401;HTU21D;53211;45.040;38.788;2022-10-01T05:49:31;18.64;79.75
66401;HTU21D;53211;45.040;38.788;2022-10-01T05:51:57;18.77;80.46
66401;HTU21D;53211;45.040;38.788;2022-10-01T05:54:29;18.89;80.01
66401;HTU21D;53211;45.040;38.788;2022-10-01T05:56:55;19.02;79.43
66401;HTU21D;53211;45.040;38.788;2022-10-01T05:59:21;19.11;79.08
66401;HTU21D;53211;45.040;38.788;2022-10-01T06:01:50;19.22;83.66
66401;HTU21D;53211;45.040;38.788;2022-10-01T06:04:16;19.31;79.14
66401;HTU21D;53211;45.040;38.788;2022-10-01T06:06:42;19.42;78.79
66401;HTU21D;53211;45.040;38.788;2022-10-01T06:09:08;19.51;78.69
66401;HTU21D;53211;45.040;38.788;2022-10-01T06:11:35;19.59;79.35
66401;HTU21D;53211;45.040;38.788;2022-10-01T06:14:01;19.70;78.98
66401;HTU21D;53211;45.040;38.788;2022-10-01T06:16:27;19.84;79.13
66401;HTU21D;53211;45.040;38.788;2022-10-01T06:18:53;19.96;78.66
66401;HTU21D;53211;45.040;38.788;2022-10-01T06:21:23;20.06;80.15
66401;HTU21D;53211;45.040;38.788;2022-10-01T06:23:50;20.18;78.98
66401;HTU21D;53211;45.040;38.788;2022-10-01T06:26:17;20.29;78.38
66401;HTU21D;53211;45.040;38.788;2022-10-01T06:28:43;20.40;78.78
66401;HTU21D;53211;45.040;38.788;2022-10-01T06:31:09;20.50;78.19
66401;HTU21D;53211;45.040;38.788;2022-10-01T06:33:36;20.57;78.21
66401;HTU21D;53211;45.040;38.788;2022-10-01T06:36:03;20.64;77.98
66401;HTU21D;53211;45.040;38.788;2022-10-01T06:38:29;20.75;77.92
66401;HTU21D;53211;45.040;38.788;2022-10-01T06:40:57;20.86;78.14
66401;HTU21D;53211;45.040;38.788;2022-10-01T06:43:25;20.98;77.95
66401;HTU21D;53211;45.040;38.788;2022-10-01T06:45:52;21.09;77.93
66401;HTU21D;53211;45.040;38.788;2022-10-01T06:48:19;21.21;77.73
66401;HTU21D;53211;45.040;38.788;2022-10-01T06:50:47;21.31;77.56
66401;HTU21D;53211;45.040;38.788;2022-10-01T06:53:14;21.45;99.46
66401;HTU21D;53211;45.040;38.788;2022-10-01T06:55:41;21.59;77.44
66401;HTU21D;53211;45.040;38.788;2022-10-01T06:58:18;21.70;77.33
66401;HTU21D;53211;45.040;38.788;2022-10-01T07:00:45;21.81;77.13
66401;HTU21D;53211;45.040;38.788;2022-10-01T07:03:17;21.90;76.97
66401;HTU21D;53211;45.040;38.788;2022-10-01T07:05:43;21.98;77.02
66401;HTU21D;53211;45.040;38.788;2022-10-01T07:08:10;22.08;77.17
66401;HTU21D;53211;45.040;38.788;2022-10-01T07:10:40;22.20;76.85
66401;HTU21D;53211;45.040;38.788;2022-10-01T07:13:14;22.28;76.70
66401;HTU21D;53211;45.040;38.788;2022-10-01T07:15:41;22.40;76.57
66401;HTU21D;53211;45.040;38.788;2022-10-01T07:18:07;22.49;76.50
66401;HTU21D;53211;45.040;38.788;2022-10-01T07:20:34;22.58;76.54
66401;HTU21D;53211;45.040;38.788;2022-10-01T07:23:04;22.70;76.15
66401;HTU21D;53211;45.040;38.788;2022-10-01T07:25:30;22.83;76.23
66401;HTU21D;53211;45.040;38.788;2022-10-01T07:27:57;22.98;76.18
66401;HTU21D;53211;45.040;38.788;2022-10-01T07:30:23;23.16;76.14
66401;HTU21D;53211;45.040;38.788;2022-10-01T07:32:49;23.31;75.89
66401;HTU21D;53211;45.040;38.788;2022-10-01T07:35:15;23.49;75.61
66401;HTU21D;53211;45.040;38.788;2022-10-01T07:37:41;23.60;75.44
66401;HTU21D;53211;45.040;38.788;2022-10-01T07:40:07;23.77;75.21
66401;HTU21D;53211;45.040;38.788;2022-10-01T07:42:33;23.91;74.95
66401;HTU21D;53211;45.040;38.788;2022-10-01T07:44:59;24.03;74.73
66401;HTU21D;53211;45.040;38.788;2022-10-01T07:47:28;24.16;74.56
66401;HTU21D;53211;45.040;38.788;2022-10-01T07:49:54;24.28;74.26
66401;HTU21D;53211;45.040;38.788;2022-10-01T07:52:20;24.39;73.90
66401;HTU21D;53211;45.040;38.788;2022-10-01T07:54:46;24.47;73.59
66401;HTU21D;53211;45.040;38.788;2022-10-01T07:57:12;24.55;73.22
66401;HTU21D;53211;45.040;38.788;2022-10-01T07:59:38;24.63;72.75
66401;HTU21D;53211;45.040;38.788;2022-10-01T08:02:09;24.70;72.44
66401;HTU21D;53211;45.040;38.788;2022-10-01T08:04:38;24.78;72.20
66401;HTU21D;53211;45.040;38.788;2022-10-01T08:07:22;24.85;71.99
66401;HTU21D;53211;45.040;38.788;2022-10-01T08:09:48;24.93;71.78
66401;HTU21D;53211;45.040;38.788;2022-10-01T08:12:14;25.00;71.45
66401;HTU21D;53211;45.040;38.788;2022-10-01T08:14:40;25.08;71.23
66401;HTU21D;53211;45.040;38.788;2022-10-01T08:17:06;25.17;70.92
66401;HTU21D;53211;45.040;38.788;2022-10-01T08:19:32;25.27;70.64
66401;HTU21D;53211;45.040;38.788;2022-10-01T08:21:58;25.34;70.28
66401;HTU21D;53211;45.040;38.788;2022-10-01T08:24:24;25.42;70.00
66401;HTU21D;53211;45.040;38.788;2022-10-01T08:26:54;25.50;69.67
66401;HTU21D;53211;45.040;38.788;2022-10-01T08:29:22;25.58;69.27
66401;HTU21D;53211;45.040;38.788;2022-10-01T08:31:47;25.64;68.94
66401;HTU21D;53211;45.040;38.788;2022-10-01T08:34:13;25.73;68.71
66401;HTU21D;53211;45.040;38.788;2022-10-01T08:36:39;25.77;67.76
66401;HTU21D;53211;45.040;38.788;2022-10-01T08:39:05;25.87;68.23
66401;HTU21D;53211;45.040;38.788;2022-10-01T08:44:24;26.04;67.65
66401;HTU21D;53211;45.040;38.788;2022-10-01T08:46:53;26.12;0.00
66401;HTU21D;53211;45.040;38.788;2022-10-01T08:49:24;26.19;67.34
66401;HTU21D;53211;45.040;38.788;2022-10-01T08:54:24;26.35;66.61
66401;HTU21D;53211;45.040;38.788;2022-10-01T08:56:53;26.41;66.27
66401;HTU21D;53211;45.040;38.788;2022-10-01T09:01:57;26.63;65.88
66401;HTU21D;53211;45.040;38.788;2022-10-01T09:04:24;26.71;65.53
66401;HTU21D;53211;45.040;38.788;2022-10-01T09:06:53;26.82;64.78
66401;HTU21D;53211;45.040;38.788;2022-10-01T09:09:37;26.90;65.02
66401;HTU21D;53211;45.040;38.788;2022-10-01T09:20:13;27.19;63.72
66401;HTU21D;53211;45.040;38.788;2022-10-01T09:25:42;27.34;63.15
66401;HTU21D;53211;45.040;38.788;2022-10-01T09:28:14;27.41;62.81
66401;HTU21D;53211;45.040;38.788;2022-10-01T09:30:41;27.49;62.42
66401;HTU21D;53211;45.040;38.788;2022-10-01T09:35:44;27.63;61.73
66401;HTU21D;53211;45.040;38.788;2022-10-01T09:40:53;27.83;60.56
66401;HTU21D;53211;45.040;38.788;2022-10-01T09:43:23;27.96;60.47
66401;HTU21D;53211;45.040;38.788;2022-10-01T09:45:51;28.11;60.37
66401;HTU21D;53211;45.040;38.788;2022-10-01T09:48:31;28.23;59.94
66401;HTU21D;53211;45.040;38.788;2022-10-01T09:53:45;28.48;59.28
66401;HTU21D;53211;45.040;38.788;2022-10-01T09:56:18;28.61;58.84
66401;HTU21D;53211;45.040;38.788;2022-10-01T09:58:46;28.75;57.80
66401;HTU21D;53211;45.040;38.788;2022-10-01T10:04:02;29.03;57.37
66401;HTU21D;53211;45.040;38.788;2022-10-01T10:06:28;29.14;56.77
66401;HTU21D;53211;45.040;38.788;2022-10-01T10:08:56;29.21;56.57
66401;HTU21D;53211;45.040;38.788;2022-10-01T10:11:26;29.27;56.14
66401;HTU21D;53211;45.040;38.788;2022-10-01T10:13:56;29.34;55.95
66401;HTU21D;53211;45.040;38.788;2022-10-01T10:16:28;29.41;55.72
66401;HTU21D;53211;45.040;38.788;2022-10-01T10:19:05;29.46;55.65
66401;HTU21D;53211;45.040;38.788;2022-10-01T10:21:34;29.53;55.39
66401;HTU21D;53211;45.040;38.788;2022-10-01T10:24:01;29.60;55.13
66401;HTU21D;53211;45.040;38.788;2022-10-01T10:26:28;29.65;54.98
66401;HTU21D;53211;45.040;38.788;2022-10-01T10:28:56;106.89;54.68
66401;HTU21D;53211;45.040;38.788;2022-10-01T10:31:23;29.79;54.49
66401;HTU21D;53211;45.040;38.788;2022-10-01T10:33:50;29.90;54.18
66401;HTU21D;53211;45.040;38.788;2022-10-01T10:36:17;30.01;53.94
66401;HTU21D;53211;45.040;38.788;2022-10-01T10:38:45;30.15;53.74
66401;HTU21D;53211;45.040;38.788;2022-10-01T10:41:14;30.31;53.71
66401;HTU21D;53211;45.040;38.788;2022-10-01T10:43:45;30.48;53.38
66401;HTU21D;53211;45.040;38.788;2022-10-01T10:46:20;30.68;53.28
66401;HTU21D;53211;45.040;38.788;2022-10-01T10:48:47;30.92;53.09
66401;HTU21D;53211;45.040;38.788;2022-10-01T10:51:23;31.22;52.52
66401;HTU21D;53211;45.040;38.788;2022-10-01T10:53:50;31.61;51.93
66401;HTU21D;53211;45.040;38.788;2022-10-01T10:56:17;32.18;50.49
66401;HTU21D;53211;45.040;38.788;2022-10-01T10:58:46;32.99;48.96
66401;HTU21D;53211;45.040;38.788;2022-10-01T11:01:14;33.85;46.89
66401;HTU21D;53211;45.040;38.788;2022-10-01T11:03:48;34.42;44.97
66401;HTU21D;53211;45.040;38.788;2022-10-01T11:06:14;34.59;44.10
66401;HTU21D;53211;45.040;38.788;2022-10-01T11:08:43;34.47;43.68
66401;HTU21D;53211;45.040;38.788;2022-10-01T11:18:56;34.15;40.55
66401;HTU21D;53211;45.040;38.788;2022-10-01T11:26:56;33.55;43.48
66401;HTU21D;53211;45.040;38.788;2022-10-01T11:32:02;33.58;43.61
66401;HTU21D;53211;45.040;38.788;2022-10-01T11:39:37;34.47;42.43
66401;HTU21D;53211;45.040;38.788;2022-10-01T11:42:05;34.70;41.87
66401;HTU21D;53211;45.040;38.788;2022-10-01T11:44:38;34.89;41.64
66401;HTU21D;53211;45.040;38.788;2022-10-01T11:47:08;35.22;40.93
66401;HTU21D;53211;45.040;38.788;2022-10-01T11:54:53;35.62;39.49
66401;HTU21D;53211;45.040;38.788;2022-10-01T11:57:20;35.86;38.98
66401;HTU21D;53211;45.040;38.788;2022-10-01T12:00:08;35.89;38.73
66401;HTU21D;53211;45.040;38.788;2022-10-01T12:02:55;35.89;38.80
66401;HTU21D;53211;45.040;38.788;2022-10-01T12:05:27;36.10;38.72
66401;HTU21D;53211;45.040;38.788;2022-10-01T12:08:15;36.10;38.26
66401;HTU21D;53211;45.040;38.788;2022-10-01T12:10:45;36.04;38.68
66401;HTU21D;53211;45.040;38.788;2022-10-01T12:13:15;36.26;39.00
66401;HTU21D;53211;45.040;38.788;2022-10-01T12:16:00;36.48;38.56
66401;HTU21D;53211;45.040;38.788;2022-10-01T12:18:30;36.92;38.40
66401;HTU21D;53211;45.040;38.788;2022-10-01T12:21:00;37.86;37.43
66401;HTU21D;53211;45.040;38.788;2022-10-01T12:23:28;38.73;36.08
66401;HTU21D;53211;45.040;38.788;2022-10-01T12:28:49;38.54;34.82
66401;HTU21D;53211;45.040;38.788;2022-10-01T12:31:32;37.80;35.13
66401;HTU21D;53211;45.040;38.788;2022-10-01T12:36:31;37.03;36.24
66401;HTU21D;53211;45.040;38.788;2022-10-01T12:57:10;40.82;32.03
66401;HTU21D;53211;45.040;38.788;2022-10-01T13:07:30;38.31;32.44
66401;HTU21D;53211;45.040;38.788;2022-10-01T13:14:54;35.94;33.47
66401;HTU21D;53211;45.040;38.788;2022-10-01T13:17:23;35.25;34.22
66401;HTU21D;53211;45.040;38.788;2022-10-01T13:20:02;34.65;35.00
66401;HTU21D;53211;45.040;38.788;2022-10-01T13:22:34;34.09;35.59
66401;HTU21D;53211;45.040;38.788;2022-10-01T13:32:30;32.43;35.53
66401;HTU21D;53211;45.040;38.788;2022-10-01T13:34:58;32.19;37.03
66401;HTU21D;53211;45.040;38.788;2022-10-01T13:39:54;31.72;38.10
66401;HTU21D;53211;45.040;38.788;2022-10-01T13:42:22;31.48;36.96
66401;HTU21D;53211;45.040;38.788;2022-10-01T13:44:58;31.31;38.30
66401;HTU21D;53211;45.040;38.788;2022-10-01T13:47:25;31.20;38.94
66401;HTU21D;53211;45.040;38.788;2022-10-01T13:49:58;31.07;39.17
66401;HTU21D;53211;45.040;38.788;2022-10-01T13:52:25;30.87;39.43
66401;HTU21D;53211;45.040;38.788;2022-10-01T13:54:52;30.72;39.74
66401;HTU21D;53211;45.040;38.788;2022-10-01T13:57:32;30.53;39.68
66401;HTU21D;53211;45.040;38.788;2022-10-01T14:00:00;30.34;40.30
66401;HTU21D;53211;45.040;38.788;2022-10-01T14:02:35;30.18;40.54
66401;HTU21D;53211;45.040;38.788;2022-10-01T14:05:21;30.00;40.85
66401;HTU21D;53211;45.040;38.788;2022-10-01T14:07:51;29.80;41.20
66401;HTU21D;53211;45.040;38.788;2022-10-01T14:10:19;29.62;41.53
66401;HTU21D;53211;45.040;38.788;2022-10-01T14:12:47;29.45;41.90
66401;HTU21D;53211;45.040;38.788;2022-10-01T14:15:36;29.22;42.29
66401;HTU21D;53211;45.040;38.788;2022-10-01T14:18:22;29.04;42.67
66401;HTU21D;53211;45.040;38.788;2022-10-01T14:20:59;28.85;43.03
66401;HTU21D;53211;45.040;38.788;2022-10-01T14:26:25;28.42;43.67
66401;HTU21D;53211;45.040;38.788;2022-10-01T14:29:01;28.26;44.00
66401;HTU21D;53211;45.040;38.788;2022-10-01T14:36:51;27.84;44.77
66401;HTU21D;53211;45.040;38.788;2022-10-01T14:39:20;27.68;45.05
66401;HTU21D;53211;45.040;38.788;2022-10-01T14:41:47;27.52;45.36
66401;HTU21D;53211;45.040;38.788;2022-10-01T14:46:42;27.22;45.99
66401;HTU21D;53211;45.040;38.788;2022-10-01T14:49:18;27.08;46.25
66401;HTU21D;53211;45.040;38.788;2022-10-01T14:51:51;26.94;46.57
66401;HTU21D;53211;45.040;38.788;2022-10-01T14:54:18;26.80;46.86
66401;HTU21D;53211;45.040;38.788;2022-10-01T14:56:44;26.68;47.18
66401;HTU21D;53211;45.040;38.788;2022-10-01T14:59:13;26.49;47.62
66401;HTU21D;53211;45.040;38.788;2022-10-01T15:01:52;26.28;48.10
66401;HTU21D;53211;45.040;38.788;2022-10-01T15:04:21;26.06;48.61
66401;HTU21D;53211;45.040;38.788;2022-10-01T15:06:47;0.00;49.11
66401;HTU21D;53211;45.040;38.788;2022-10-01T15:09:13;25.61;49.58
66401;HTU21D;53211;45.040;38.788;2022-10-01T15:11:39;25.39;50.06
66401;HTU21D;53211;45.040;38.788;2022-10-01T15:14:09;25.21;50.56
66401;HTU21D;53211;45.040;38.788;2022-10-01T15:16:39;25.00;51.04
66401;HTU21D;53211;45.040;38.788;2022-10-01T15:19:05;24.79;51.53
66401;HTU21D;53211;45.040;38.788;2022-10-01T15:21:37;24.60;52.01
66401;HTU21D;53211;45.040;38.788;2022-10-01T15:24:05;24.40;52.49
66401;HTU21D;53211;45.040;38.788;2022-10-01T15:26:31;24.18;52.87
66401;HTU21D;53211;45.040;38.788;2022-10-01T15:29:01;24.01;53.27
66401;HTU21D;53211;45.040;38.788;2022-10-01T15:31:27;23.84;53.67
66401;HTU21D;53211;45.040;38.788;2022-10-01T15:33:53;23.69;54.07
66401;HTU21D;53211;45.040;38.788;2022-10-01T15:36:19;23.55;54.41
66401;HTU21D;53211;45.040;38.788;2022-10-01T15:38:45;23.38;54.79
66401;HTU21D;53211;45.040;38.788;2022-10-01T15:41:20;23.25;55.16
66401;HTU21D;53211;45.040;38.788;2022-10-01T15:43:47;23.09;55.58
66401;HTU21D;53211;45.040;38.788;2022-10-01T15:49:09;22.81;56.32
66401;HTU21D;53211;45.040;38.788;2022-10-01T15:51:35;22.65;56.70
66401;HTU21D;53211;45.040;38.788;2022-10-01T15:54:04;22.50;57.10
66401;HTU21D;53211;45.040;38.788;2022-10-01T15:56:31;22.36;57.46
66401;HTU21D;53211;45.040;38.788;2022-10-01T15:58:58;22.24;57.80
66401;HTU21D;53211;45.040;38.788;2022-10-01T16:01:28;22.11;58.17
66401;HTU21D;53211;45.040;38.788;2022-10-01T16:04:16;22.01;58.48
66401;HTU21D;53211;45.040;38.788;2022-10-01T16:06:41;21.87;58.85
66401;HTU21D;53211;45.040;38.788;2022-10-01T16:09:21;21.76;59.16
66401;HTU21D;53211;45.040;38.788;2022-10-01T16:11:52;21.63;59.49
66401;HTU21D;53211;45.040;38.788;2022-10-01T16:14:38;21.53;59.78
66401;HTU21D;53211;45.040;38.788;2022-10-01T16:19:45;21.33;60.31
66401;HTU21D;53211;45.040;38.788;2022-10-01T16:22:30;21.29;60.57
66401;HTU21D;53211;45.040;38.788;2022-10-01T16:30:00;21.16;61.18
66401;HTU21D;53211;45.040;38.788;2022-10-01T16:32:27;21.15;61.25
66401;HTU21D;53211;45.040;38.788;2022-10-01T16:35:04;21.14;61.36
66401;HTU21D;53211;45.040;38.788;2022-10-01T16:37:32;21.08;61.56
66401;HTU21D;53211;45.040;38.788;2022-10-01T16:39:57;21.01;61.76
66401;HTU21D;53211;45.040;38.788;2022-10-01T16:42:23;20.91;62.00
66401;HTU21D;53211;45.040;38.788;2022-10-01T16:44:49;20.83;62.23
66401;HTU21D;53211;45.040;38.788;2022-10-01T16:47:15;20.72;62.48
66401;HTU21D;53211;45.040;38.788;2022-10-01T16:49:41;20.62;62.71
66401;HTU21D;53211;45.040;38.788;2022-10-01T16:52:08;20.54;62.93
66401;HTU21D;53211;45.040;38.788;2022-10-01T16:54:36;20.45;63.20
66401;HTU21D;53211;45.040;38.788;2022-10-01T16:57:02;20.39;63.42
66401;HTU21D;53211;45.040;38.788;2022-10-01T16:59:28;20.32;63.63
66401;HTU21D;53211;45.040;38.788;2022-10-01T17:01:53;20.25;63.79
66401;HTU21D;53211;45.040;38.788;2022-10-01T17:04:20;20.18;63.97
66401;HTU21D;53211;45.040;38.788;2022-10-01T17:06:46;20.10;64.11
66401;HTU21D;53211;45.040;38.788;2022-10-01T17:09:13;20.04;64.27
66401;HTU21D;53211;45.040;38.788;2022-10-01T17:11:39;19.97;64.43
66401;HTU21D;53211;45.040;38.788;2022-10-01T17:14:08;19.90;64.65
66401;HTU21D;53211;45.040;38.788;2022-10-01T17:16:39;19.83;64.85
66401;HTU21D;53211;45.040;38.788;2022-10-01T17:19:05;19.75;65.04
66401;HTU21D;53211;45.040;38.788;2022-10-01T17:21:31;19.71;65.29
66401;HTU21D;53211;45.040;38.788;2022-10-01T17:23:57;19.62;65.46
66401;HTU21D;53211;45.040;38.788;2022-10-01T17:26:23;19.58;65.67
66401;HTU21D;53211;45.040;38.788;2022-10-01T17:28:49;19.52;65.85
66401;HTU21D;53211;45.040;38.788;2022-10-01T17:31:15;19.47;66.04
66401;HTU21D;53211;45.040;38.788;2022-10-01T17:33:41;19.41;66.23
66401;HTU21D;53211;45.040;38.788;2022-10-01T17:36:07;19.37;66.39
66401;HTU21D;53211;45.040;38.788;2022-10-01T17:38:35;19.30;66.56
66401;HTU21D;53211;45.040;38.788;2022-10-01T17:41:01;19.26;66.72